Flight Track Log - Related Links

Times and Time Zones

All times are in EDT time to prevent confusion due to time zone crossing. See the CTL17 flight status page for this flight to view local times or setup timezone preferences in your user account.

Time Position Orientation Groundspeed Altitude Reporting Facility
EDT Latitude Longitude Course Direction KTS MPH feet Rate Location/Type
Tue 06:55:31 PM 41.5481 -81.6903 350° North 138 159 1,800  Level Cleveland Center
Tue 06:56:32 PM 41.5728 -81.7294 310° West 155 178 2,800 934 Climbing Cleveland Center
Tue 06:57:33 PM 41.5847 -81.7825 287° West 151 174 3,700 787 Climbing Cleveland Center
Tue 06:58:34 PM 41.6008 -81.8356 292° West 159 183 4,400 645 Climbing Cleveland Center
Tue 06:59:34 PM 41.6211 -81.8914 296° West 162 186 5,000 595 Climbing Cleveland Center
Tue 07:00:35 PM 41.6369 -81.9472 291° West 169 194 5,600 545 Climbing Cleveland Center
Tue 07:01:35 PM 41.6572 -82.0117 293° West 167 192 6,100 298 Climbing Cleveland Center
Tue 07:02:36 PM 41.6772 -82.0733 293° West 180 207 6,200  Climbing Cleveland Center
Tue 07:03:37 PM 41.6972 -82.1350 293° West 188 216 6,100 -50 Descending Cleveland Center
Tue 07:04:37 PM 41.7192 -82.1967 296° West 184 212 6,100 -50 Level Cleveland Center
Tue 07:05:38 PM 41.7392 -82.2583 294° West 187 215 6,000 -47 Descending Cleveland Center
Tue 07:06:45 PM 41.7631 -82.3342 293° West 185 213 6,000  Level Cleveland Center
Tue 07:07:44 PM 41.7872 -82.3906 300° West 185 213 6,000 45 Level Cleveland Center
Tue 07:08:57 PM 41.8089 -82.4692 290° West 184 212 6,100  Climbing Cleveland Center
Tue 07:09:57 PM 41.8244 -82.5364 287° West 184 212 6,000 -50 Descending Cleveland Center
Tue 07:10:58 PM 41.8442 -82.5983 293° West 187 215 6,000 49 Level Cleveland Center
Tue 07:11:59 PM 41.8917 -82.6250 337° Northwest 178 205 6,100 52 Climbing Cleveland Center
Tue 07:12:54 PM 41.9331 -82.6486 337° Northwest 179 206 6,100 -261 Level Cleveland Center
Tue 07:13:54 PM 41.9786 -82.6697 341° North 186 214 5,600 -574 Descending Cleveland Center
Tue 07:14:49 PM 42.0300 -82.6964 339° North 202 232 5,000 -310 Descending Cleveland Center
Tue 07:15:50 PM 42.0756 -82.7233 336° Northwest 180 207 5,000 47 Level Cleveland Center
Tue 07:16:57 PM 42.1269 -82.7531 337° Northwest 174 200 5,100 47 Climbing Cleveland Center
Tue 07:17:57 PM 42.1725 -82.7769 339° North 175 201 5,100  Level Cleveland Center
Tue 07:19:04 PM 42.2219 -82.8039 338° Northwest 175 201 5,100 -49 Level Cleveland Center
Tue 07:19:59 PM 42.2503 -82.8469 312° West 178 205 5,000  Descending Cleveland Center
Tue 07:20:59 PM 42.2869 -82.8958 315° West 176 203 5,100 -261 Climbing Cleveland Center
Tue 07:21:54 PM 42.3214 -82.9336 321° Northwest 192 221 4,500 -776 Descending Cleveland Center
Tue 07:22:55 PM 42.3686 -82.9747 327° Northwest 196 226 3,600 -694 Descending Cleveland Center
Tue 07:23:55 PM 42.4136 -83.0186 324° Northwest 193 222 3,100 -298 Descending Cleveland Center
Tue 07:24:56 PM 42.4522 -83.0653 318° Northwest 182 209 3,000 -45 Descending Cleveland Center
Tue 07:26:09 PM 42.4925 -83.1261 312° West 176 203 3,000 45 Level Cleveland Center
Tue 07:27:09 PM 42.5206 -83.1750 308° West 171 197 3,100 -99 Climbing Cleveland Center
Tue 07:28:10 PM 42.5486 -83.2325 304° West 179 206 2,800 -246 Descending Cleveland Center
Tue 07:29:11 PM 42.5744 -83.2844 304° West 174 200 2,600 -189 Descending Cleveland Center
Tue 07:30:17 PM 42.6042 -83.3419 305° West 171 197 2,400 -236 Descending Cleveland Center
Tue 07:31:18 PM 42.6342 -83.3997 305° West 168 193 2,100 -295 Descending Cleveland Center
Tue 07:32:19 PM 42.6453 -83.4539 286° West 130 150 1,800 -295 Descending Cleveland Center
Tue 07:34:00 PM 42.6500 -83.4167 304° West  Level FlightAware Approximate
Tue 07:41:00 PM 42.6656 -83.4205 304° West  Level Estimated
Tue 07:42:00 PM 42.6656 -83.4205 304° West  Level Estimated

Login

Don't have an account? Register now (free) for customized features, flight alerts, and more!